Buoy 46762

sailwx.info

Track history (hours):
 
Tides and Currents Weather Stations Pressure Air Temp Water Temp Dewpoint Dewpoint Depression Visibility Wind Speed Wind Dir Waves Ship Positions

Drifting buoy 46762

Last reported at 2014-Jul-22 12:00 UTC. Time now 2014-Jul-22 13:26 UTC.
Position N 54°06' W 143°38'.

Barometer 1022.9 mb
Water temperature 12.8 ° C

Date/timePositionNaut miles runAvg speedWind from/ knotsBaromVisibWave heightAir tempDewpointWater temp
2014-Jul-22 12:00N 54°06' W 143°38'0 0.0 1022.9 12.8
2014-Jul-22 10:00N 54°06' W 143°38'1 0.3 1022.8 12.8
2014-Jul-22 07:00N 54°07' W 143°37'1 1.0 1021.8 12.8
2014-Jul-22 06:00N 54°07' W 143°38'1 0.9 1021.2 12.8
2014-Jul-22 05:00N 54°07' W 143°40'0 0.2 1020.9 12.8
2014-Jul-22 04:00N 54°07' W 143°39'0 0.5 1020.5 12.8
2014-Jul-22 03:00N 54°08' W 143°40'3 2.5 1019.7 12.8
2014-Jul-22 02:00N 54°05' W 143°42'0 0.0 1019.4 12.8
2014-Jul-22 01:00N 54°05' W 143°42'0 0.3 1019.2 12.8
2014-Jul-22 00:00N 54°06' W 143°43'1 1.5 1018.7 12.8
2014-Jul-21 23:00N 54°05' W 143°40'2 2.3 1018.2 12.8
2014-Jul-21 22:00N 54°06' W 143°37'0 0.0 1017.7 12.7
2014-Jul-21 21:00N 54°06' W 143°37'0 0.2 1016.7 12.6
2014-Jul-21 20:00N 54°06' W 143°37'0 0.0 1015.8 12.5
2014-Jul-21 19:00N 54°06' W 143°37'1 1.3 1014.7 12.4
2014-Jul-21 18:00N 54°07' W 143°39'1 1.4 1014.3 12.4
2014-Jul-21 17:00N 54°07' W 143°37'3 2.7 1013.9 12.4
2014-Jul-21 16:00N 54°06' W 143°40'0 0.0 1013.4 12.4
2014-Jul-21 15:00N 54°06' W 143°40'0 0.5 1012.8 12.4
2014-Jul-21 14:00N 54°06' W 143°40'2 0.8 1012.4 12.4
2014-Jul-21 12:00N 54°06' W 143°38'0 0.0 1011.7 12.4
2014-Jul-21 10:00N 54°06' W 143°38'2 1.7 1011.1 12.4
2014-Jul-21 09:00N 54°07' W 143°38'1 0.3 1011.0 12.4
2014-Jul-21 07:00N 54°07' W 143°38'1 1.1 1010.8 12.4
2014-Jul-21 06:00N 54°07' W 143°36'0 0.0 1010.6 12.4
2014-Jul-21 05:00N 54°07' W 143°36'2 1.5 1010.1 12.4
2014-Jul-21 04:00N 54°09' W 143°38'0 0.0 1009.9 12.4
2014-Jul-21 03:00N 54°09' W 143°38'2 2.2 1009.9 12.4
2014-Jul-21 02:00N 54°06' W 143°38'0 0.0 1010.1 12.5
2014-Jul-21 01:00N 54°06' W 143°38'1 1.4 1010.6 12.5
2014-Jul-21 00:00N 54°08' W 143°38'0 0.4 1010.9 12.5
2014-Jul-20 23:00N 54°08' W 143°37'1 0.9 1011.4 12.5
2014-Jul-20 22:00N 54°07' W 143°38'2 1.9 1012.0 12.5
2014-Jul-20 21:00N 54°08' W 143°35'2 1.8 1012.2 12.5
2014-Jul-20 20:00N 54°09' W 143°37'0 0.0 1012.7 12.5
2014-Jul-20 18:00N 54°09' W 143°37'0 0.3 1013.2 12.5
2014-Jul-20 17:00N 54°09' W 143°38'1 0.9 1013.7 12.5
2014-Jul-20 16:00N 54°09' W 143°39'0 0.4 1014.0 12.5
2014-Jul-20 15:00N 54°09' W 143°39'0 0.0 1014.5 12.5
2014-Jul-20 14:00N 54°09' W 143°39'1 1.4 1014.9 12.5
2014-Jul-20 13:00N 54°08' W 143°38'0 0.0 1015.4 12.5
2014-Jul-20 12:00N 54°08' W 143°38'0 0.0 1015.7 12.5
2014-Jul-20 11:00N 54°08' W 143°38'2 1.8 1016.1 12.5
2014-Jul-20 10:00N 54°10' W 143°38'0 0.0 1016.4 12.5
2014-Jul-20 09:00N 54°10' W 143°38'0 0.2 1016.6 12.5
2014-Jul-20 07:00N 54°09' W 143°38'1 1.2 1016.7 12.5
2014-Jul-20 06:00N 54°10' W 143°40'0 0.0 1016.8 12.5
2014-Jul-20 05:00N 54°10' W 143°40'1 0.8 1016.9 12.5
2014-Jul-20 04:00N 54°10' W 143°41'0 0.2 1017.2 12.5
2014-Jul-20 03:00N 54°10' W 143°41'3 1.4 1017.4 12.5
2014-Jul-20 01:00N 54°08' W 143°45'1 1.2 1018.1 12.6
2014-Jul-20 00:00N 54°08' W 143°43'1 1.2 1018.3 12.5
2014-Jul-19 23:00N 54°08' W 143°45'0 0.0 1018.5 12.5
2014-Jul-19 22:00N 54°08' W 143°45'2 1.9 1018.3 12.5
2014-Jul-19 21:00N 54°08' W 143°41'1 1.4 1018.3 12.5
2014-Jul-19 20:00N 54°09' W 143°40'0 0.0 1017.9 12.5
2014-Jul-19 19:00N 54°09' W 143°40'0 0.0 1017.6 12.5
2014-Jul-19 18:00N 54°09' W 143°40'1 1.0 1017.2 12.4
2014-Jul-19 17:00N 54°10' W 143°39'2 1.2 1017.0 12.4
2014-Jul-19 15:00N 54°09' W 143°44'0 0.5 1016.2 12.4
2014-Jul-19 14:00N 54°09' W 143°44'1 1.2 1016.0 12.4
2014-Jul-19 12:50N 54°08' W 143°45'0 0.0 850.0 -5.0
2014-Jul-19 12:00N 54°08' W 143°45'2 2.3 1015.5 12.4
2014-Jul-19 11:00N 54°07' W 143°41'1 0.3 1015.2 12.4
2014-Jul-19 08:00N 54°08' W 143°42'1 0.9 1013.1 12.5
2014-Jul-19 07:00N 54°08' W 143°43'1 0.7 1011.9 12.5
2014-Jul-19 06:00N 54°07' W 143°43'0 0.0 1010.2 12.6
2014-Jul-19 05:00N 54°07' W 143°43'1 1.4 1009.2 12.8
2014-Jul-19 04:00N 54°08' W 143°42'1 1.3 1008.2 12.8
2014-Jul-19 03:00N 54°09' W 143°44'0 0.0 1006.8 12.8
2014-Jul-19 02:00N 54°09' W 143°44'1 1.1 1005.8 12.8
2014-Jul-19 01:00N 54°08' W 143°44'0 0.4 1005.4 12.8
2014-Jul-19 00:00N 54°08' W 143°43'1 0.8 1005.5 12.8
2014-Jul-18 23:00N 54°08' W 143°45'2 1.9 1005.4 12.8
2014-Jul-18 22:00N 54°06' W 143°42'2 2.2 1005.2 12.8
2014-Jul-18 21:00N 54°07' W 143°46'0 0.5 1005.3 12.8
2014-Jul-18 20:00N 54°07' W 143°45'0 0.4 1005.1 12.8
2014-Jul-18 19:00N 54°07' W 143°45'1 0.6 1005.1 12.8
2014-Jul-18 17:00N 54°08' W 143°46'0 0.0 1005.9 12.8
2014-Jul-18 16:00N 54°08' W 143°46'0 0.3 1006.3 12.8
2014-Jul-18 15:00N 54°09' W 143°46'1 0.6 1007.2 12.8
2014-Jul-18 14:00N 54°08' W 143°47'1 0.8 1008.2 12.8
2014-Jul-18 13:00N 54°08' W 143°46'1 1.0 1008.7 12.9
2014-Jul-18 12:00N 54°08' W 143°48'1 0.7 1009.4 12.9
2014-Jul-18 11:00N 54°07' W 143°47'0 0.0 1009.7 12.9
2014-Jul-18 09:00N 54°07' W 143°47'0 0.0 1010.4 12.9
2014-Jul-18 08:00N 54°07' W 143°47'1 0.3 1010.1 12.8
2014-Jul-18 06:00N 54°07' W 143°48'1 0.7 1010.2 12.8
2014-Jul-18 05:00N 54°07' W 143°47'1 1.1 1010.1 12.8
2014-Jul-18 04:00N 54°08' W 143°45'0 0.0 1009.6 12.9
2014-Jul-18 03:00N 54°08' W 143°45'2 0.8 1010.1 13.0
2014-Jul-18 01:00N 54°07' W 143°48'1 0.6 1010.5 13.1
2014-Jul-18 00:00N 54°07' W 143°49'1 0.9 1011.1 13.1
2014-Jul-17 23:00N 54°08' W 143°48'1 0.5 1012.0 13.0
2014-Jul-17 22:00N 54°07' W 143°49'0 0.1 1012.8 13.0
2014-Jul-17 21:00N 54°07' W 143°49'1 0.3 1013.9 12.9
2014-Jul-17 18:00N 54°06' W 143°48'0 0.0 1016.6 12.7
2014-Jul-17 17:00N 54°06' W 143°48'0 0.0 1017.5 12.8
2014-Jul-17 16:00N 54°06' W 143°48'1 0.6 1018.4 12.8
2014-Jul-17 15:00N 54°06' W 143°49'0 0.4 1018.6 12.8
2014-Jul-17 14:00N 54°06' W 143°48'1 1.1 1019.0 12.9
2014-Jul-17 13:00N 54°07' W 143°50'0 0.1 1019.1 12.9
2014-Jul-17 08:00N 54°07' W 143°50'1 0.7 1021.9 13.1
2014-Jul-17 07:00N 54°06' W 143°51'1 0.9 1021.9 13.1
2014-Jul-17 06:00N 54°05' W 143°52'1 0.6 1021.7 13.2
2014-Jul-17 05:00N 54°05' W 143°51'1 0.3 1021.3 13.2
2014-Jul-17 03:00N 54°05' W 143°52'0 0.3 1021.6 13.2
2014-Jul-17 02:00N 54°05' W 143°53'1 1.4 1021.9 13.3
2014-Jul-17 01:00N 54°05' W 143°50'1 0.6 1022.2 13.2
2014-Jul-17 00:00N 54°04' W 143°51'0 0.3 1022.4 13.2
2014-Jul-16 23:00N 54°04' W 143°50'0 0.0 1022.7 13.2
2014-Jul-16 22:00N 54°04' W 143°50'1 0.8 1023.0 13.0
2014-Jul-16 21:00N 54°05' W 143°51'1 0.6 1023.2 13.0
2014-Jul-16 19:00N 54°04' W 143°51'0 0.0 1023.4 13.0
2014-Jul-16 17:00N 54°04' W 143°51'1 0.6 1024.0 13.1
2014-Jul-16 16:00N 54°04' W 143°51'1 0.7 1024.1 13.1
2014-Jul-16 14:00N 54°04' W 143°53'0 0.0 1024.4 13.0
2014-Jul-16 13:00N 54°04' W 143°53'2 1.6 1024.8 13.0
2014-Jul-16 12:00N 54°03' W 143°51'0 0.1 1025.3 13.2
2014-Jul-16 11:00N 54°03' W 143°51'0 0.0 1025.8 13.2
2014-Jul-16 10:00N 54°03' W 143°51'1 0.3 1026.0 13.2
2014-Jul-16 07:00N 54°02' W 143°52'1 0.3 1026.9 12.8
2014-Jul-16 05:00N 54°02' W 143°53'2 2.0 1027.1 13.2
2014-Jul-16 04:00N 54°04' W 143°51'2 2.0 1027.5 13.5
2014-Jul-16 03:00N 54°02' W 143°52'0 0.1 1027.8 13.6
2014-Jul-16 02:00N 54°02' W 143°52'1 0.7 1028.2 13.8
2014-Jul-16 01:00N 54°01' W 143°53'0 0.1 1028.4 13.8
2014-Jul-16 00:00N 54°01' W 143°53'1 1.0 1028.7 14.0
2014-Jul-15 23:00N 54°01' W 143°55'2 1.7 1029.1 14.0
2014-Jul-15 22:00N 54°01' W 143°52'1 1.3 1029.1 13.8
2014-Jul-15 21:00N 54°01' W 143°54'1 0.5 1029.2 13.5
2014-Jul-15 20:00N 54°01' W 143°54'0 0.0 1029.2 13.5
2014-Jul-15 19:00N 54°01' W 143°54'2 2.4 1029.2 13.2
2014-Jul-15 18:00N 53°59' W 143°55'2 1.7 1029.4 13.1
2014-Jul-15 17:00N 54°00' W 143°53'0 0.3 1029.4 13.0
2014-Jul-15 16:00N 54°00' W 143°54'0 0.0 1029.4 12.9
2014-Jul-15 15:00N 54°00' W 143°54'1 0.6 1029.4 13.0
2014-Jul-15 14:00N 54°00' W 143°53'0 0.4 1029.4 13.0
2014-Jul-15 13:00N 54°00' W 143°53'0 0.2 1029.5 13.0
2014-Jul-15 12:00N 54°00' W 143°53'1 1.4 1029.5 13.0
2014-Jul-15 11:00N 54°01' W 143°55'0 0.0 1029.5 13.0
2014-Jul-15 10:00N 54°01' W 143°55'0 0.0 1029.6 13.0
2014-Jul-15 09:00N 54°01' W 143°55'1 0.6 1029.8 13.2
2014-Jul-15 07:00N 53°60' W 143°55'1 1.3 1030.2 13.5
2014-Jul-15 06:00N 53°59' W 143°56'1 1.0 1030.1 13.5
2014-Jul-15 05:00N 53°59' W 143°55'1 0.9 1029.9 13.5
2014-Jul-15 04:00N 53°59' W 143°56'1 0.5 1030.1 13.5
2014-Jul-15 02:00N 53°59' W 143°55'0 0.2 1030.1 13.6
2014-Jul-15 01:00N 53°59' W 143°54'0 0.3 1030.3 13.5
2014-Jul-15 00:00N 53°59' W 143°54'2 2.0 1030.3 13.5
2014-Jul-14 23:00N 53°60' W 143°51'2 1.6 1030.0 13.4
2014-Jul-14 22:00N 54°00' W 143°54'1 0.7 1029.9 13.2
2014-Jul-14 21:00N 53°60' W 143°55'0 0.0 1029.9 13.2
2014-Jul-14 20:00N 53°60' W 143°55'3 1.5 1029.7 13.0
2014-Jul-14 18:00N 54°00' W 143°59'2 1.7 1029.3 12.8
2014-Jul-14 17:00N 53°59' W 143°58'1 0.7 1029.1 12.8
2014-Jul-14 16:00N 53°58' W 143°57'0 0.0 1028.7 13.0
2014-Jul-14 15:00N 53°58' W 143°57'0 0.3 1028.4 13.0
2014-Jul-14 14:00N 53°58' W 143°57'1 1.0 1028.3 13.2
2014-Jul-14 13:00N 53°58' W 143°55'1 1.2 1027.9 13.4
2014-Jul-14 12:00N 53°57' W 143°55'1 0.5 1027.6 13.4
2014-Jul-14 10:00N 53°58' W 143°57'2 0.8 1027.6 13.5
2014-Jul-14 08:00N 53°59' W 143°55'1 0.5 1027.4 13.2
2014-Jul-14 07:00N 53°59' W 143°56'1 0.8 1027.2 13.3
2014-Jul-14 06:00N 53°59' W 143°57'1 0.5 1026.8 13.3
2014-Jul-14 04:00N 53°58' W 143°58'1 1.1 1026.5 13.7
2014-Jul-14 03:00N 53°59' W 143°57'2 1.7 1026.3 14.5
2014-Jul-14 02:00N 53°58' W 143°59'1 0.5 1026.1 15.5
2014-Jul-14 01:00N 53°57' W 143°58'1 0.6 1026.0 15.3
2014-Jul-14 00:00N 53°57' W 143°58'1 1.2 1025.9 14.9
2014-Jul-13 23:00N 53°58' W 143°57'1 1.1 1025.6 14.4
2014-Jul-13 22:00N 53°57' W 143°57'1 0.7 1025.1 13.6
2014-Jul-13 21:00N 53°57' W 143°56'1 0.6 1024.9 13.2
2014-Jul-13 20:00N 53°56' W 143°57'2 1.6 1024.7 12.8
2014-Jul-13 19:00N 53°58' W 143°56'2 0.8 1024.5 12.5
2014-Jul-13 17:00N 53°57' W 143°58'1 0.9 1024.0 12.4
2014-Jul-13 16:00N 53°58' W 143°57'2 1.8 1023.6 12.4
2014-Jul-13 15:00N 53°57' W 143°60'0 0.5 1023.0 12.4
2014-Jul-13 14:00N 53°57' W 143°60'2 1.2 1022.7 12.4
2014-Jul-13 12:00N 53°55' W 143°58'1 0.1 1021.8 12.4
2014-Jul-13 07:00N 53°56' W 143°58'1 1.1 1020.7 12.6
2014-Jul-13 06:00N 53°56' W 143°56'1 1.5 1020.2 12.8
2014-Jul-13 05:00N 53°55' W 143°58'2 1.9 1020.0 12.8
2014-Jul-13 04:00N 53°57' W 143°60'1 1.0 1019.8 13.0
2014-Jul-13 03:00N 53°56' W 143°58'1 0.6 1019.4 13.1
2014-Jul-13 02:00N 53°56' W 143°59'0 0.0 1019.0 12.9
2014-Jul-13 01:00N 53°56' W 143°59'1 0.7 1018.6 12.9
2014-Jul-13 00:00N 53°57' W 143°60'1 0.8 1018.3 12.8
2014-Jul-12 23:00N 53°56' W 143°59'1 0.8 1018.1 12.8
2014-Jul-12 22:00N 53°56' W 144°00'1 0.7 1017.9 13.0
2014-Jul-12 21:00N 53°55' W 144°01'0 0.2 1017.5 13.0
2014-Jul-12 20:00N 53°55' W 144°01'1 1.1 1017.3 13.2
2014-Jul-12 19:00N 53°54' W 144°01'1 1.5 1016.8 13.0
2014-Jul-12 18:00N 53°55' W 143°59'0 0.4 1016.5 12.1
2014-Jul-12 17:00N 53°55' W 143°59'1 1.3 1016.3 11.8
2014-Jul-12 16:00N 53°54' W 144°00'0 0.0 1016.0 11.7
2014-Jul-12 15:00N 53°54' W 144°00'1 1.2 1015.6 11.7
2014-Jul-12 14:00N 53°56' W 144°01'0 0.5 1015.3 11.7
2014-Jul-12 13:00N 53°55' W 144°00'0 0.0 1014.8 11.7
2014-Jul-12 12:00N 53°55' W 144°00'   1014.5 11.7
Track history (hours):
 
Tides and Currents Weather Stations Pressure Air Temp Water Temp Dewpoint Dewpoint Depression Visibility Wind Speed Wind Dir Waves Ship Positions

Drifting buoy 46762

Last reported at 2014-Jul-22 12:00 UTC. Time now 2014-Jul-22 13:26 UTC.
Position N 54°06' W 143°38'.

Barometer 1022.9 mb
Water temperature 12.8 ° C

Date/timePositionNaut miles runAvg speedWind from/ knotsBaromVisibWave heightAir tempDewpointWater temp
2014-Jul-22 12:00N 54°06' W 143°38'0 0.0 1022.9 12.8
2014-Jul-22 10:00N 54°06' W 143°38'1 0.3 1022.8 12.8
2014-Jul-22 07:00N 54°07' W 143°37'1 1.0 1021.8 12.8
2014-Jul-22 06:00N 54°07' W 143°38'1 0.9 1021.2 12.8
2014-Jul-22 05:00N 54°07' W 143°40'0 0.2 1020.9 12.8
2014-Jul-22 04:00N 54°07' W 143°39'0 0.5 1020.5 12.8
2014-Jul-22 03:00N 54°08' W 143°40'3 2.5 1019.7 12.8
2014-Jul-22 02:00N 54°05' W 143°42'0 0.0 1019.4 12.8
2014-Jul-22 01:00N 54°05' W 143°42'0 0.3 1019.2 12.8
2014-Jul-22 00:00N 54°06' W 143°43'1 1.5 1018.7 12.8
2014-Jul-21 23:00N 54°05' W 143°40'2 2.3 1018.2 12.8
2014-Jul-21 22:00N 54°06' W 143°37'0 0.0 1017.7 12.7
2014-Jul-21 21:00N 54°06' W 143°37'0 0.2 1016.7 12.6
2014-Jul-21 20:00N 54°06' W 143°37'0 0.0 1015.8 12.5
2014-Jul-21 19:00N 54°06' W 143°37'1 1.3 1014.7 12.4
2014-Jul-21 18:00N 54°07' W 143°39'1 1.4 1014.3 12.4
2014-Jul-21 17:00N 54°07' W 143°37'3 2.7 1013.9 12.4
2014-Jul-21 16:00N 54°06' W 143°40'0 0.0 1013.4 12.4
2014-Jul-21 15:00N 54°06' W 143°40'0 0.5 1012.8 12.4
2014-Jul-21 14:00N 54°06' W 143°40'2 0.8 1012.4 12.4
2014-Jul-21 12:00N 54°06' W 143°38'0 0.0 1011.7 12.4
2014-Jul-21 10:00N 54°06' W 143°38'2 1.7 1011.1 12.4
2014-Jul-21 09:00N 54°07' W 143°38'1 0.3 1011.0 12.4
2014-Jul-21 07:00N 54°07' W 143°38'1 1.1 1010.8 12.4
2014-Jul-21 06:00N 54°07' W 143°36'0 0.0 1010.6 12.4
2014-Jul-21 05:00N 54°07' W 143°36'2 1.5 1010.1 12.4
2014-Jul-21 04:00N 54°09' W 143°38'0 0.0 1009.9 12.4
2014-Jul-21 03:00N 54°09' W 143°38'2 2.2 1009.9 12.4
2014-Jul-21 02:00N 54°06' W 143°38'0 0.0 1010.1 12.5
2014-Jul-21 01:00N 54°06' W 143°38'1 1.4 1010.6 12.5
2014-Jul-21 00:00N 54°08' W 143°38'0 0.4 1010.9 12.5
2014-Jul-20 23:00N 54°08' W 143°37'1 0.9 1011.4 12.5
2014-Jul-20 22:00N 54°07' W 143°38'2 1.9 1012.0 12.5
2014-Jul-20 21:00N 54°08' W 143°35'2 1.8 1012.2 12.5
2014-Jul-20 20:00N 54°09' W 143°37'0 0.0 1012.7 12.5
2014-Jul-20 18:00N 54°09' W 143°37'0 0.3 1013.2 12.5
2014-Jul-20 17:00N 54°09' W 143°38'1 0.9 1013.7 12.5
2014-Jul-20 16:00N 54°09' W 143°39'0 0.4 1014.0 12.5
2014-Jul-20 15:00N 54°09' W 143°39'0 0.0 1014.5 12.5
2014-Jul-20 14:00N 54°09' W 143°39'1 1.4 1014.9 12.5
2014-Jul-20 13:00N 54°08' W 143°38'0 0.0 1015.4 12.5
2014-Jul-20 12:00N 54°08' W 143°38'0 0.0 1015.7 12.5
2014-Jul-20 11:00N 54°08' W 143°38'2 1.8 1016.1 12.5
2014-Jul-20 10:00N 54°10' W 143°38'0 0.0 1016.4 12.5
2014-Jul-20 09:00N 54°10' W 143°38'0 0.2 1016.6 12.5
2014-Jul-20 07:00N 54°09' W 143°38'1 1.2 1016.7 12.5
2014-Jul-20 06:00N 54°10' W 143°40'0 0.0 1016.8 12.5
2014-Jul-20 05:00N 54°10' W 143°40'1 0.8 1016.9 12.5
2014-Jul-20 04:00N 54°10' W 143°41'0 0.2 1017.2 12.5
2014-Jul-20 03:00N 54°10' W 143°41'3 1.4 1017.4 12.5
2014-Jul-20 01:00N 54°08' W 143°45'1 1.2 1018.1 12.6
2014-Jul-20 00:00N 54°08' W 143°43'1 1.2 1018.3 12.5
2014-Jul-19 23:00N 54°08' W 143°45'0 0.0 1018.5 12.5
2014-Jul-19 22:00N 54°08' W 143°45'2 1.9 1018.3 12.5
2014-Jul-19 21:00N 54°08' W 143°41'1 1.4 1018.3 12.5
2014-Jul-19 20:00N 54°09' W 143°40'0 0.0 1017.9 12.5
2014-Jul-19 19:00N 54°09' W 143°40'0 0.0 1017.6 12.5
2014-Jul-19 18:00N 54°09' W 143°40'1 1.0 1017.2 12.4
2014-Jul-19 17:00N 54°10' W 143°39'2 1.2 1017.0 12.4
2014-Jul-19 15:00N 54°09' W 143°44'0 0.5 1016.2 12.4
2014-Jul-19 14:00N 54°09' W 143°44'1 1.2 1016.0 12.4
2014-Jul-19 12:50N 54°08' W 143°45'0 0.0 850.0 -5.0
2014-Jul-19 12:00N 54°08' W 143°45'2 2.3 1015.5 12.4
2014-Jul-19 11:00N 54°07' W 143°41'1 0.3 1015.2 12.4
2014-Jul-19 08:00N 54°08' W 143°42'1 0.9 1013.1 12.5
2014-Jul-19 07:00N 54°08' W 143°43'1 0.7 1011.9 12.5
2014-Jul-19 06:00N 54°07' W 143°43'0 0.0 1010.2 12.6
2014-Jul-19 05:00N 54°07' W 143°43'1 1.4 1009.2 12.8
2014-Jul-19 04:00N 54°08' W 143°42'1 1.3 1008.2 12.8
2014-Jul-19 03:00N 54°09' W 143°44'0 0.0 1006.8 12.8
2014-Jul-19 02:00N 54°09' W 143°44'1 1.1 1005.8 12.8
2014-Jul-19 01:00N 54°08' W 143°44'0 0.4 1005.4 12.8
2014-Jul-19 00:00N 54°08' W 143°43'1 0.8 1005.5 12.8
2014-Jul-18 23:00N 54°08' W 143°45'2 1.9 1005.4 12.8
2014-Jul-18 22:00N 54°06' W 143°42'2 2.2 1005.2 12.8
2014-Jul-18 21:00N 54°07' W 143°46'0 0.5 1005.3 12.8
2014-Jul-18 20:00N 54°07' W 143°45'0 0.4 1005.1 12.8
2014-Jul-18 19:00N 54°07' W 143°45'1 0.6 1005.1 12.8
2014-Jul-18 17:00N 54°08' W 143°46'0 0.0 1005.9 12.8
2014-Jul-18 16:00N 54°08' W 143°46'0 0.3 1006.3 12.8
2014-Jul-18 15:00N 54°09' W 143°46'1 0.6 1007.2 12.8
2014-Jul-18 14:00N 54°08' W 143°47'1 0.8 1008.2 12.8
2014-Jul-18 13:00N 54°08' W 143°46'1 1.0 1008.7 12.9
2014-Jul-18 12:00N 54°08' W 143°48'1 0.7 1009.4 12.9
2014-Jul-18 11:00N 54°07' W 143°47'0 0.0 1009.7 12.9
2014-Jul-18 09:00N 54°07' W 143°47'0 0.0 1010.4 12.9
2014-Jul-18 08:00N 54°07' W 143°47'1 0.3 1010.1 12.8
2014-Jul-18 06:00N 54°07' W 143°48'1 0.7 1010.2 12.8
2014-Jul-18 05:00N 54°07' W 143°47'1 1.1 1010.1 12.8
2014-Jul-18 04:00N 54°08' W 143°45'0 0.0 1009.6 12.9
2014-Jul-18 03:00N 54°08' W 143°45'2 0.8 1010.1 13.0
2014-Jul-18 01:00N 54°07' W 143°48'1 0.6 1010.5 13.1
2014-Jul-18 00:00N 54°07' W 143°49'1 0.9 1011.1 13.1
2014-Jul-17 23:00N 54°08' W 143°48'1 0.5 1012.0 13.0
2014-Jul-17 22:00N 54°07' W 143°49'0 0.1 1012.8 13.0
2014-Jul-17 21:00N 54°07' W 143°49'1 0.3 1013.9 12.9
2014-Jul-17 18:00N 54°06' W 143°48'0 0.0 1016.6 12.7
2014-Jul-17 17:00N 54°06' W 143°48'0 0.0 1017.5 12.8
2014-Jul-17 16:00N 54°06' W 143°48'1 0.6 1018.4 12.8
2014-Jul-17 15:00N 54°06' W 143°49'0 0.4 1018.6 12.8
2014-Jul-17 14:00N 54°06' W 143°48'1 1.1 1019.0 12.9
2014-Jul-17 13:00N 54°07' W 143°50'0 0.1 1019.1 12.9
2014-Jul-17 08:00N 54°07' W 143°50'1 0.7 1021.9 13.1
2014-Jul-17 07:00N 54°06' W 143°51'1 0.9 1021.9 13.1
2014-Jul-17 06:00N 54°05' W 143°52'1 0.6 1021.7 13.2
2014-Jul-17 05:00N 54°05' W 143°51'1 0.3 1021.3 13.2
2014-Jul-17 03:00N 54°05' W 143°52'0 0.3 1021.6 13.2
2014-Jul-17 02:00N 54°05' W 143°53'1 1.4 1021.9 13.3
2014-Jul-17 01:00N 54°05' W 143°50'1 0.6 1022.2 13.2
2014-Jul-17 00:00N 54°04' W 143°51'0 0.3 1022.4 13.2
2014-Jul-16 23:00N 54°04' W 143°50'0 0.0 1022.7 13.2
2014-Jul-16 22:00N 54°04' W 143°50'1 0.8 1023.0 13.0
2014-Jul-16 21:00N 54°05' W 143°51'1 0.6 1023.2 13.0
2014-Jul-16 19:00N 54°04' W 143°51'0 0.0 1023.4 13.0
2014-Jul-16 17:00N 54°04' W 143°51'1 0.6 1024.0 13.1
2014-Jul-16 16:00N 54°04' W 143°51'1 0.7 1024.1 13.1
2014-Jul-16 14:00N 54°04' W 143°53'0 0.0 1024.4 13.0
2014-Jul-16 13:00N 54°04' W 143°53'2 1.6 1024.8 13.0
2014-Jul-16 12:00N 54°03' W 143°51'0 0.1 1025.3 13.2
2014-Jul-16 11:00N 54°03' W 143°51'0 0.0 1025.8 13.2
2014-Jul-16 10:00N 54°03' W 143°51'1 0.3 1026.0 13.2
2014-Jul-16 07:00N 54°02' W 143°52'1 0.3 1026.9 12.8
2014-Jul-16 05:00N 54°02' W 143°53'2 2.0 1027.1 13.2
2014-Jul-16 04:00N 54°04' W 143°51'2 2.0 1027.5 13.5
2014-Jul-16 03:00N 54°02' W 143°52'0 0.1 1027.8 13.6
2014-Jul-16 02:00N 54°02' W 143°52'1 0.7 1028.2 13.8
2014-Jul-16 01:00N 54°01' W 143°53'0 0.1 1028.4 13.8
2014-Jul-16 00:00N 54°01' W 143°53'1 1.0 1028.7 14.0
2014-Jul-15 23:00N 54°01' W 143°55'2 1.7 1029.1 14.0
2014-Jul-15 22:00N 54°01' W 143°52'1 1.3 1029.1 13.8
2014-Jul-15 21:00N 54°01' W 143°54'1 0.5 1029.2 13.5
2014-Jul-15 20:00N 54°01' W 143°54'0 0.0 1029.2 13.5
2014-Jul-15 19:00N 54°01' W 143°54'2 2.4 1029.2 13.2
2014-Jul-15 18:00N 53°59' W 143°55'2 1.7 1029.4 13.1
2014-Jul-15 17:00N 54°00' W 143°53'0 0.3 1029.4 13.0
2014-Jul-15 16:00N 54°00' W 143°54'0 0.0 1029.4 12.9
2014-Jul-15 15:00N 54°00' W 143°54'1 0.6 1029.4 13.0
2014-Jul-15 14:00N 54°00' W 143°53'0 0.4 1029.4 13.0
2014-Jul-15 13:00N 54°00' W 143°53'0 0.2 1029.5 13.0
2014-Jul-15 12:00N 54°00' W 143°53'1 1.4 1029.5 13.0
2014-Jul-15 11:00N 54°01' W 143°55'0 0.0 1029.5 13.0
2014-Jul-15 10:00N 54°01' W 143°55'0 0.0 1029.6 13.0
2014-Jul-15 09:00N 54°01' W 143°55'1 0.6 1029.8 13.2
2014-Jul-15 07:00N 53°60' W 143°55'1 1.3 1030.2 13.5
2014-Jul-15 06:00N 53°59' W 143°56'1 1.0 1030.1 13.5
2014-Jul-15 05:00N 53°59' W 143°55'1 0.9 1029.9 13.5
2014-Jul-15 04:00N 53°59' W 143°56'1 0.5 1030.1 13.5
2014-Jul-15 02:00N 53°59' W 143°55'0 0.2 1030.1 13.6
2014-Jul-15 01:00N 53°59' W 143°54'0 0.3 1030.3 13.5
2014-Jul-15 00:00N 53°59' W 143°54'2 2.0 1030.3 13.5
2014-Jul-14 23:00N 53°60' W 143°51'2 1.6 1030.0 13.4
2014-Jul-14 22:00N 54°00' W 143°54'1 0.7 1029.9 13.2
2014-Jul-14 21:00N 53°60' W 143°55'0 0.0 1029.9 13.2
2014-Jul-14 20:00N 53°60' W 143°55'3 1.5 1029.7 13.0
2014-Jul-14 18:00N 54°00' W 143°59'2 1.7 1029.3 12.8
2014-Jul-14 17:00N 53°59' W 143°58'1 0.7 1029.1 12.8
2014-Jul-14 16:00N 53°58' W 143°57'0 0.0 1028.7 13.0
2014-Jul-14 15:00N 53°58' W 143°57'0 0.3 1028.4 13.0
2014-Jul-14 14:00N 53°58' W 143°57'1 1.0 1028.3 13.2
2014-Jul-14 13:00N 53°58' W 143°55'1 1.2 1027.9 13.4
2014-Jul-14 12:00N 53°57' W 143°55'1 0.5 1027.6 13.4
2014-Jul-14 10:00N 53°58' W 143°57'2 0.8 1027.6 13.5
2014-Jul-14 08:00N 53°59' W 143°55'1 0.5 1027.4 13.2
2014-Jul-14 07:00N 53°59' W 143°56'1 0.8 1027.2 13.3
2014-Jul-14 06:00N 53°59' W 143°57'1 0.5 1026.8 13.3
2014-Jul-14 04:00N 53°58' W 143°58'1 1.1 1026.5 13.7
2014-Jul-14 03:00N 53°59' W 143°57'2 1.7 1026.3 14.5
2014-Jul-14 02:00N 53°58' W 143°59'1 0.5 1026.1 15.5
2014-Jul-14 01:00N 53°57' W 143°58'1 0.6 1026.0 15.3
2014-Jul-14 00:00N 53°57' W 143°58'1 1.2 1025.9 14.9
2014-Jul-13 23:00N 53°58' W 143°57'1 1.1 1025.6 14.4
2014-Jul-13 22:00N 53°57' W 143°57'1 0.7 1025.1 13.6
2014-Jul-13 21:00N 53°57' W 143°56'1 0.6 1024.9 13.2
2014-Jul-13 20:00N 53°56' W 143°57'2 1.6 1024.7 12.8
2014-Jul-13 19:00N 53°58' W 143°56'2 0.8 1024.5 12.5
2014-Jul-13 17:00N 53°57' W 143°58'1 0.9 1024.0 12.4
2014-Jul-13 16:00N 53°58' W 143°57'2 1.8 1023.6 12.4
2014-Jul-13 15:00N 53°57' W 143°60'0 0.5 1023.0 12.4
2014-Jul-13 14:00N 53°57' W 143°60'2 1.2 1022.7 12.4
2014-Jul-13 12:00N 53°55' W 143°58'1 0.1 1021.8 12.4
2014-Jul-13 07:00N 53°56' W 143°58'1 1.1 1020.7 12.6
2014-Jul-13 06:00N 53°56' W 143°56'1 1.5 1020.2 12.8
2014-Jul-13 05:00N 53°55' W 143°58'2 1.9 1020.0 12.8
2014-Jul-13 04:00N 53°57' W 143°60'1 1.0 1019.8 13.0
2014-Jul-13 03:00N 53°56' W 143°58'1 0.6 1019.4 13.1
2014-Jul-13 02:00N 53°56' W 143°59'0 0.0 1019.0 12.9
2014-Jul-13 01:00N 53°56' W 143°59'1 0.7 1018.6 12.9
2014-Jul-13 00:00N 53°57' W 143°60'1 0.8 1018.3 12.8
2014-Jul-12 23:00N 53°56' W 143°59'1 0.8 1018.1 12.8
2014-Jul-12 22:00N 53°56' W 144°00'1 0.7 1017.9 13.0
2014-Jul-12 21:00N 53°55' W 144°01'0 0.2 1017.5 13.0
2014-Jul-12 20:00N 53°55' W 144°01'1 1.1 1017.3 13.2
2014-Jul-12 19:00N 53°54' W 144°01'1 1.5 1016.8 13.0
2014-Jul-12 18:00N 53°55' W 143°59'0 0.4 1016.5 12.1
2014-Jul-12 17:00N 53°55' W 143°59'1 1.3 1016.3 11.8
2014-Jul-12 16:00N 53°54' W 144°00'0 0.0 1016.0 11.7
2014-Jul-12 15:00N 53°54' W 144°00'1 1.2 1015.6 11.7
2014-Jul-12 14:00N 53°56' W 144°01'0 0.5 1015.3 11.7
2014-Jul-12 13:00N 53°55' W 144°00'0 0.0 1014.8 11.7
2014-Jul-12 12:00N 53°55' W 144°00'   1014.5 11.7

Dump ship's entire track history